sensor_id;sensor_type;location;lat;lon;timestamp;temperature;humidity
67559;DHT22;54388;53.536;49.300;2023-05-31T00:00:51;26.60;35.10
67559;DHT22;54388;53.536;49.300;2023-05-31T00:03:17;26.50;35.20
67559;DHT22;54388;53.536;49.300;2023-05-31T00:05:44;26.50;35.30
67559;DHT22;54388;53.536;49.300;2023-05-31T00:08:12;26.50;35.30
67559;DHT22;54388;53.536;49.300;2023-05-31T00:10:39;26.50;35.40
67559;DHT22;54388;53.536;49.300;2023-05-31T00:13:06;26.50;35.50
67559;DHT22;54388;53.536;49.300;2023-05-31T00:15:34;26.50;35.50
67559;DHT22;54388;53.536;49.300;2023-05-31T00:18:03;26.50;35.50
67559;DHT22;54388;53.536;49.300;2023-05-31T00:20:33;26.40;35.70
67559;DHT22;54388;53.536;49.300;2023-05-31T00:22:59;26.40;35.70
67559;DHT22;54388;53.536;49.300;2023-05-31T00:25:26;26.40;35.80
67559;DHT22;54388;53.536;49.300;2023-05-31T00:27:55;26.40;35.90
67559;DHT22;54388;53.536;49.300;2023-05-31T00:30:22;26.40;35.90
67559;DHT22;54388;53.536;49.300;2023-05-31T00:32:52;26.40;35.90
67559;DHT22;54388;53.536;49.300;2023-05-31T00:35:21;26.40;36.00
67559;DHT22;54388;53.536;49.300;2023-05-31T00:37:47;26.30;36.00
67559;DHT22;54388;53.536;49.300;2023-05-31T00:40:16;26.40;36.00
67559;DHT22;54388;53.536;49.300;2023-05-31T00:42:43;26.30;36.60
67559;DHT22;54388;53.536;49.300;2023-05-31T00:45:09;26.30;35.40
67559;DHT22;54388;53.536;49.300;2023-05-31T00:47:36;26.30;35.40
67559;DHT22;54388;53.536;49.300;2023-05-31T00:50:03;26.30;35.30
67559;DHT22;54388;53.536;49.300;2023-05-31T00:52:33;26.20;35.10
67559;DHT22;54388;53.536;49.300;2023-05-31T00:55:03;26.20;34.90
67559;DHT22;54388;53.536;49.300;2023-05-31T00:57:30;26.20;34.90
67559;DHT22;54388;53.536;49.300;2023-05-31T00:59:57;26.30;34.80
67559;DHT22;54388;53.536;49.300;2023-05-31T01:02:23;26.20;34.60
67559;DHT22;54388;53.536;49.300;2023-05-31T01:04:50;26.20;34.50
67559;DHT22;54388;53.536;49.300;2023-05-31T01:07:16;26.20;34.40
67559;DHT22;54388;53.536;49.300;2023-05-31T01:09:43;26.20;34.20
67559;DHT22;54388;53.536;49.300;2023-05-31T01:15:13;26.20;33.90
67559;DHT22;54388;53.536;49.300;2023-05-31T01:17:50;26.20;33.90
67559;DHT22;54388;53.536;49.300;2023-05-31T01:20:19;26.20;33.90
67559;DHT22;54388;53.536;49.300;2023-05-31T01:28:50;26.30;33.70
67559;DHT22;54388;53.536;49.300;2023-05-31T01:31:27;26.30;33.90
67559;DHT22;54388;53.536;49.300;2023-05-31T01:34:01;26.40;34.10
67559;DHT22;54388;53.536;49.300;2023-05-31T01:36:31;26.30;33.90
67559;DHT22;54388;53.536;49.300;2023-05-31T01:39:03;26.40;34.00
67559;DHT22;54388;53.536;49.300;2023-05-31T01:41:38;26.40;33.90
67559;DHT22;54388;53.536;49.300;2023-05-31T01:44:12;26.40;33.70
67559;DHT22;54388;53.536;49.300;2023-05-31T01:46:44;26.40;33.60
67559;DHT22;54388;53.536;49.300;2023-05-31T01:49:16;26.40;33.40
67559;DHT22;54388;53.536;49.300;2023-05-31T01:51:46;26.50;33.30
67559;DHT22;54388;53.536;49.300;2023-05-31T01:54:17;26.50;33.10
67559;DHT22;54388;53.536;49.300;2023-05-31T01:56:49;26.50;33.00
67559;DHT22;54388;53.536;49.300;2023-05-31T01:59:16;26.50;32.70
67559;DHT22;54388;53.536;49.300;2023-05-31T02:01:43;26.50;32.70
67559;DHT22;54388;53.536;49.300;2023-05-31T02:04:19;26.60;32.60
67559;DHT22;54388;53.536;49.300;2023-05-31T02:06:48;26.60;33.50
67559;DHT22;54388;53.536;49.300;2023-05-31T02:09:20;26.60;32.40
67559;DHT22;54388;53.536;49.300;2023-05-31T02:11:53;26.60;32.10
67559;DHT22;54388;53.536;49.300;2023-05-31T02:14:27;26.70;32.00
67559;DHT22;54388;53.536;49.300;2023-05-31T02:16:58;26.70;31.80
67559;DHT22;54388;53.536;49.300;2023-05-31T02:19:27;26.70;31.60
67559;DHT22;54388;53.536;49.300;2023-05-31T02:21:59;26.70;31.30
67559;DHT22;54388;53.536;49.300;2023-05-31T02:24:31;26.80;31.20
67559;DHT22;54388;53.536;49.300;2023-05-31T02:27:02;26.80;31.00
67559;DHT22;54388;53.536;49.300;2023-05-31T02:29:31;26.80;30.60
67559;DHT22;54388;53.536;49.300;2023-05-31T02:32:03;26.90;30.40
67559;DHT22;54388;53.536;49.300;2023-05-31T02:34:29;26.90;30.20
67559;DHT22;54388;53.536;49.300;2023-05-31T02:37:01;27.00;30.10
67559;DHT22;54388;53.536;49.300;2023-05-31T02:39:34;27.00;30.00
67559;DHT22;54388;53.536;49.300;2023-05-31T02:42:05;27.00;30.00
67559;DHT22;54388;53.536;49.300;2023-05-31T02:44:35;27.10;29.60
67559;DHT22;54388;53.536;49.300;2023-05-31T02:47:06;27.20;29.30
67559;DHT22;54388;53.536;49.300;2023-05-31T02:49:35;27.30;29.00
67559;DHT22;54388;53.536;49.300;2023-05-31T02:52:04;27.40;28.40
67559;DHT22;54388;53.536;49.300;2023-05-31T02:54:31;27.50;27.80
67559;DHT22;54388;53.536;49.300;2023-05-31T02:57:00;27.60;27.70
67559;DHT22;54388;53.536;49.300;2023-05-31T02:59:29;27.70;27.30
67559;DHT22;54388;53.536;49.300;2023-05-31T03:02:00;27.80;27.20
67559;DHT22;54388;53.536;49.300;2023-05-31T03:04:30;27.90;27.10
67559;DHT22;54388;53.536;49.300;2023-05-31T03:07:02;28.00;27.10
67559;DHT22;54388;53.536;49.300;2023-05-31T03:09:34;28.00;26.80
67559;DHT22;54388;53.536;49.300;2023-05-31T03:12:05;28.10;26.60
67559;DHT22;54388;53.536;49.300;2023-05-31T03:14:34;28.30;26.70
67559;DHT22;54388;53.536;49.300;2023-05-31T03:17:04;28.40;26.60
67559;DHT22;54388;53.536;49.300;2023-05-31T03:19:37;28.40;26.60
67559;DHT22;54388;53.536;49.300;2023-05-31T03:22:04;28.50;26.60
67559;DHT22;54388;53.536;49.300;2023-05-31T03:24:31;28.60;26.50
67559;DHT22;54388;53.536;49.300;2023-05-31T03:27:00;28.80;26.30
67559;DHT22;54388;53.536;49.300;2023-05-31T03:29:29;28.80;26.00
67559;DHT22;54388;53.536;49.300;2023-05-31T03:32:00;29.00;26.00
67559;DHT22;54388;53.536;49.300;2023-05-31T03:34:29;29.20;25.50
67559;DHT22;54388;53.536;49.300;2023-05-31T03:37:00;29.50;25.20
67559;DHT22;54388;53.536;49.300;2023-05-31T03:39:32;29.70;24.90
67559;DHT22;54388;53.536;49.300;2023-05-31T03:42:01;30.00;24.80
67559;DHT22;54388;53.536;49.300;2023-05-31T03:44:33;30.10;24.60
67559;DHT22;54388;53.536;49.300;2023-05-31T03:47:04;30.20;24.30
67559;DHT22;54388;53.536;49.300;2023-05-31T03:49:30;30.30;24.20
67559;DHT22;54388;53.536;49.300;2023-05-31T03:52:00;30.40;24.20
67559;DHT22;54388;53.536;49.300;2023-05-31T03:54:31;30.40;24.00
67559;DHT22;54388;53.536;49.300;2023-05-31T03:56:58;30.50;24.00
67559;DHT22;54388;53.536;49.300;2023-05-31T03:59:27;30.80;24.00
67559;DHT22;54388;53.536;49.300;2023-05-31T04:01:57;31.00;23.70
67559;DHT22;54388;53.536;49.300;2023-05-31T04:04:23;31.20;23.50
67559;DHT22;54388;53.536;49.300;2023-05-31T04:06:52;31.60;23.30
67559;DHT22;54388;53.536;49.300;2023-05-31T04:09:24;31.90;23.10
67559;DHT22;54388;53.536;49.300;2023-05-31T04:11:53;32.20;23.00
67559;DHT22;54388;53.536;49.300;2023-05-31T04:14:19;32.60;22.80
67559;DHT22;54388;53.536;49.300;2023-05-31T04:16:46;33.00;22.50
67559;DHT22;54388;53.536;49.300;2023-05-31T04:19:13;33.30;22.30
67559;DHT22;54388;53.536;49.300;2023-05-31T04:21:39;33.60;22.10
67559;DHT22;54388;53.536;49.300;2023-05-31T04:24:08;34.00;21.80
67559;DHT22;54388;53.536;49.300;2023-05-31T04:26:37;34.30;21.70
67559;DHT22;54388;53.536;49.300;2023-05-31T04:29:04;34.70;21.50
67559;DHT22;54388;53.536;49.300;2023-05-31T04:31:31;35.10;21.30
67559;DHT22;54388;53.536;49.300;2023-05-31T04:34:04;35.40;21.00
67559;DHT22;54388;53.536;49.300;2023-05-31T04:36:36;35.80;20.70
67559;DHT22;54388;53.536;49.300;2023-05-31T04:39:07;36.10;20.30
67559;DHT22;54388;53.536;49.300;2023-05-31T04:41:38;36.40;20.10
67559;DHT22;54388;53.536;49.300;2023-05-31T04:44:07;36.80;20.00
67559;DHT22;54388;53.536;49.300;2023-05-31T04:46:36;37.20;19.70
67559;DHT22;54388;53.536;49.300;2023-05-31T04:49:03;37.60;19.30
67559;DHT22;54388;53.536;49.300;2023-05-31T04:51:35;38.00;19.10
67559;DHT22;54388;53.536;49.300;2023-05-31T04:54:02;38.40;18.80
67559;DHT22;54388;53.536;49.300;2023-05-31T04:56:29;38.60;18.80
67559;DHT22;54388;53.536;49.300;2023-05-31T04:58:56;38.90;18.70
67559;DHT22;54388;53.536;49.300;2023-05-31T05:01:22;39.20;18.60
67559;DHT22;54388;53.536;49.300;2023-05-31T05:03:50;39.40;18.40
67559;DHT22;54388;53.536;49.300;2023-05-31T05:06:21;39.70;18.20
67559;DHT22;54388;53.536;49.300;2023-05-31T05:08:50;40.00;18.00
67559;DHT22;54388;53.536;49.300;2023-05-31T05:11:21;40.10;18.00
67559;DHT22;54388;53.536;49.300;2023-05-31T05:13:51;40.20;17.80
67559;DHT22;54388;53.536;49.300;2023-05-31T05:16:20;40.30;17.80
67559;DHT22;54388;53.536;49.300;2023-05-31T05:18:50;40.40;17.90
67559;DHT22;54388;53.536;49.300;2023-05-31T05:21:19;40.50;17.90
67559;DHT22;54388;53.536;49.300;2023-05-31T05:23:45;40.50;17.90
67559;DHT22;54388;53.536;49.300;2023-05-31T05:26:12;40.60;18.00
67559;DHT22;54388;53.536;49.300;2023-05-31T05:28:41;40.50;18.30
67559;DHT22;54388;53.536;49.300;2023-05-31T05:31:08;40.50;18.00
67559;DHT22;54388;53.536;49.300;2023-05-31T05:33:34;40.50;18.20
67559;DHT22;54388;53.536;49.300;2023-05-31T05:36:01;40.50;18.20
67559;DHT22;54388;53.536;49.300;2023-05-31T05:38:28;40.50;18.30
67559;DHT22;54388;53.536;49.300;2023-05-31T05:40:57;40.50;18.40
67559;DHT22;54388;53.536;49.300;2023-05-31T05:43:26;40.60;18.50
67559;DHT22;54388;53.536;49.300;2023-05-31T05:45:59;40.50;18.60
67559;DHT22;54388;53.536;49.300;2023-05-31T05:48:26;40.50;18.50
67559;DHT22;54388;53.536;49.300;2023-05-31T05:50:53;40.60;18.70
67559;DHT22;54388;53.536;49.300;2023-05-31T05:53:22;40.70;18.60
67559;DHT22;54388;53.536;49.300;2023-05-31T05:55:51;40.90;18.60
67559;DHT22;54388;53.536;49.300;2023-05-31T05:58:18;40.90;18.40
67559;DHT22;54388;53.536;49.300;2023-05-31T06:00:46;41.20;18.20
67559;DHT22;54388;53.536;49.300;2023-05-31T06:03:13;41.40;18.00
67559;DHT22;54388;53.536;49.300;2023-05-31T06:05:41;41.70;17.80
67559;DHT22;54388;53.536;49.300;2023-05-31T06:08:10;41.90;17.60
67559;DHT22;54388;53.536;49.300;2023-05-31T06:10:37;42.20;17.50
67559;DHT22;54388;53.536;49.300;2023-05-31T06:13:07;42.50;17.20
67559;DHT22;54388;53.536;49.300;2023-05-31T06:15:34;42.80;17.10
67559;DHT22;54388;53.536;49.300;2023-05-31T06:18:06;43.10;17.00
67559;DHT22;54388;53.536;49.300;2023-05-31T06:20:37;43.30;16.70
67559;DHT22;54388;53.536;49.300;2023-05-31T06:23:04;43.60;16.50
67559;DHT22;54388;53.536;49.300;2023-05-31T06:25:33;43.90;16.40
67559;DHT22;54388;53.536;49.300;2023-05-31T06:28:02;44.10;16.40
67559;DHT22;54388;53.536;49.300;2023-05-31T06:30:30;44.20;16.20
67559;DHT22;54388;53.536;49.300;2023-05-31T06:32:58;44.30;16.00
67559;DHT22;54388;53.536;49.300;2023-05-31T06:35:25;44.50;16.00
67559;DHT22;54388;53.536;49.300;2023-05-31T06:37:52;44.50;16.00
67559;DHT22;54388;53.536;49.300;2023-05-31T06:40:21;44.50;16.00
67559;DHT22;54388;53.536;49.300;2023-05-31T06:42:48;44.50;15.80
67559;DHT22;54388;53.536;49.300;2023-05-31T06:45:17;44.40;15.80
67559;DHT22;54388;53.536;49.300;2023-05-31T06:47:44;44.50;16.00
67559;DHT22;54388;53.536;49.300;2023-05-31T06:50:12;44.40;15.80
67559;DHT22;54388;53.536;49.300;2023-05-31T06:52:39;44.40;16.00
67559;DHT22;54388;53.536;49.300;2023-05-31T06:55:09;44.40;16.00
67559;DHT22;54388;53.536;49.300;2023-05-31T06:57:38;44.50;16.10
67559;DHT22;54388;53.536;49.300;2023-05-31T07:00:05;44.40;15.80
67559;DHT22;54388;53.536;49.300;2023-05-31T07:02:35;44.60;15.70
67559;DHT22;54388;53.536;49.300;2023-05-31T07:05:07;44.60;15.70
67559;DHT22;54388;53.536;49.300;2023-05-31T07:07:36;44.60;15.40
67559;DHT22;54388;53.536;49.300;2023-05-31T07:10:03;44.60;15.10
67559;DHT22;54388;53.536;49.300;2023-05-31T07:12:30;44.70;15.20
67559;DHT22;54388;53.536;49.300;2023-05-31T07:14:59;44.70;15.10
67559;DHT22;54388;53.536;49.300;2023-05-31T07:17:25;44.80;15.20
67559;DHT22;54388;53.536;49.300;2023-05-31T07:19:57;44.80;15.20
67559;DHT22;54388;53.536;49.300;2023-05-31T07:22:26;44.90;15.20
67559;DHT22;54388;53.536;49.300;2023-05-31T07:24:55;44.90;15.40
67559;DHT22;54388;53.536;49.300;2023-05-31T07:27:25;44.90;15.20
67559;DHT22;54388;53.536;49.300;2023-05-31T07:29:51;45.00;15.20
67559;DHT22;54388;53.536;49.300;2023-05-31T07:32:18;45.00;15.30
67559;DHT22;54388;53.536;49.300;2023-05-31T07:34:49;45.10;15.10
67559;DHT22;54388;53.536;49.300;2023-05-31T07:37:15;45.20;15.00
67559;DHT22;54388;53.536;49.300;2023-05-31T07:39:43;45.30;15.10
67559;DHT22;54388;53.536;49.300;2023-05-31T07:42:10;45.40;15.10
67559;DHT22;54388;53.536;49.300;2023-05-31T07:44:39;45.40;15.20
67559;DHT22;54388;53.536;49.300;2023-05-31T07:47:08;45.50;15.10
67559;DHT22;54388;53.536;49.300;2023-05-31T07:49:35;45.50;15.00
67559;DHT22;54388;53.536;49.300;2023-05-31T07:52:03;45.60;15.10
67559;DHT22;54388;53.536;49.300;2023-05-31T07:54:30;45.70;15.00
67559;DHT22;54388;53.536;49.300;2023-05-31T07:56:59;45.70;15.10
67559;DHT22;54388;53.536;49.300;2023-05-31T07:59:26;45.70;15.20
67559;DHT22;54388;53.536;49.300;2023-05-31T08:01:56;45.70;15.20
67559;DHT22;54388;53.536;49.300;2023-05-31T08:04:23;45.70;15.20
67559;DHT22;54388;53.536;49.300;2023-05-31T08:06:52;45.70;15.20
67559;DHT22;54388;53.536;49.300;2023-05-31T08:09:21;45.70;15.20
67559;DHT22;54388;53.536;49.300;2023-05-31T08:11:52;45.70;15.30
67559;DHT22;54388;53.536;49.300;2023-05-31T08:14:21;45.70;15.30
67559;DHT22;54388;53.536;49.300;2023-05-31T08:16:50;45.70;15.30
67559;DHT22;54388;53.536;49.300;2023-05-31T08:19:19;45.70;15.40
67559;DHT22;54388;53.536;49.300;2023-05-31T08:21:47;45.70;15.60
67559;DHT22;54388;53.536;49.300;2023-05-31T08:24:17;45.70;15.60
67559;DHT22;54388;53.536;49.300;2023-05-31T08:26:48;45.70;15.70
67559;DHT22;54388;53.536;49.300;2023-05-31T08:29:19;45.70;15.70
67559;DHT22;54388;53.536;49.300;2023-05-31T08:31:45;45.70;15.70
67559;DHT22;54388;53.536;49.300;2023-05-31T08:34:14;45.70;15.70
67559;DHT22;54388;53.536;49.300;2023-05-31T08:36:41;45.70;15.70
67559;DHT22;54388;53.536;49.300;2023-05-31T08:39:08;45.70;15.70
67559;DHT22;54388;53.536;49.300;2023-05-31T08:42:25;45.70;15.70
67559;DHT22;54388;53.536;49.300;2023-05-31T08:44:29;45.80;15.70
67559;DHT22;54388;53.536;49.300;2023-05-31T08:46:59;45.80;15.50
67559;DHT22;54388;53.536;49.300;2023-05-31T08:49:33;45.80;15.40
67559;DHT22;54388;53.536;49.300;2023-05-31T08:52:00;45.80;15.40
67559;DHT22;54388;53.536;49.300;2023-05-31T08:54:29;45.80;15.70
67559;DHT22;54388;53.536;49.300;2023-05-31T08:56:59;45.70;15.60
67559;DHT22;54388;53.536;49.300;2023-05-31T08:59:26;45.70;15.60
67559;DHT22;54388;53.536;49.300;2023-05-31T09:01:53;45.60;15.70
67559;DHT22;54388;53.536;49.300;2023-05-31T09:04:22;45.50;15.70
67559;DHT22;54388;53.536;49.300;2023-05-31T09:06:50;45.40;15.80
67559;DHT22;54388;53.536;49.300;2023-05-31T09:09:17;45.30;15.80
67559;DHT22;54388;53.536;49.300;2023-05-31T09:11:45;45.20;15.90
67559;DHT22;54388;53.536;49.300;2023-05-31T09:14:14;45.00;16.00
67559;DHT22;54388;53.536;49.300;2023-05-31T09:16:41;44.80;16.20
67559;DHT22;54388;53.536;49.300;2023-05-31T09:19:12;44.60;16.30
67559;DHT22;54388;53.536;49.300;2023-05-31T09:21:40;44.30;16.60
67559;DHT22;54388;53.536;49.300;2023-05-31T09:24:08;44.00;16.80
67559;DHT22;54388;53.536;49.300;2023-05-31T09:26:47;43.80;17.00
67559;DHT22;54388;53.536;49.300;2023-05-31T09:29:14;43.60;17.20
67559;DHT22;54388;53.536;49.300;2023-05-31T09:31:42;43.30;17.40
67559;DHT22;54388;53.536;49.300;2023-05-31T09:34:29;43.20;17.40
67559;DHT22;54388;53.536;49.300;2023-05-31T09:37:02;42.90;17.50
67559;DHT22;54388;53.536;49.300;2023-05-31T09:39:30;42.80;17.80
67559;DHT22;54388;53.536;49.300;2023-05-31T09:41:57;42.70;17.90
67559;DHT22;54388;53.536;49.300;2023-05-31T09:44:28;42.50;18.10
67559;DHT22;54388;53.536;49.300;2023-05-31T09:46:57;42.60;18.40
67559;DHT22;54388;53.536;49.300;2023-05-31T09:49:33;42.50;18.50
67559;DHT22;54388;53.536;49.300;2023-05-31T09:52:01;42.70;18.50
67559;DHT22;54388;53.536;49.300;2023-05-31T09:54:27;42.80;19.10
67559;DHT22;54388;53.536;49.300;2023-05-31T09:56:56;42.90;18.30
67559;DHT22;54388;53.536;49.300;2023-05-31T09:59:25;42.90;18.30
67559;DHT22;54388;53.536;49.300;2023-05-31T10:01:54;42.90;18.20
67559;DHT22;54388;53.536;49.300;2023-05-31T10:04:21;42.90;18.10
67559;DHT22;54388;53.536;49.300;2023-05-31T10:06:48;42.90;18.20
67559;DHT22;54388;53.536;49.300;2023-05-31T10:09:14;42.80;18.30
67559;DHT22;54388;53.536;49.300;2023-05-31T10:11:43;42.80;18.30
67559;DHT22;54388;53.536;49.300;2023-05-31T10:14:25;42.70;18.30
67559;DHT22;54388;53.536;49.300;2023-05-31T10:16:55;42.70;18.30
67559;DHT22;54388;53.536;49.300;2023-05-31T10:19:36;42.80;18.30
67559;DHT22;54388;53.536;49.300;2023-05-31T10:22:04;42.80;18.20
67559;DHT22;54388;53.536;49.300;2023-05-31T10:24:51;42.80;18.20
67559;DHT22;54388;53.536;49.300;2023-05-31T10:29:55;42.90;18.00
67559;DHT22;54388;53.536;49.300;2023-05-31T10:32:29;43.10;18.00
67559;DHT22;54388;53.536;49.300;2023-05-31T10:34:58;43.10;18.10
67559;DHT22;54388;53.536;49.300;2023-05-31T10:37:27;43.20;18.00
67559;DHT22;54388;53.536;49.300;2023-05-31T10:43:07;43.30;17.90
67559;DHT22;54388;53.536;49.300;2023-05-31T10:45:46;43.50;17.90
67559;DHT22;54388;53.536;49.300;2023-05-31T10:51:18;43.70;17.70
67559;DHT22;54388;53.536;49.300;2023-05-31T10:53:48;43.70;17.60
67559;DHT22;54388;53.536;49.300;2023-05-31T10:56:16;43.70;17.70
67559;DHT22;54388;53.536;49.300;2023-05-31T10:58:55;43.80;17.60
67559;DHT22;54388;53.536;49.300;2023-05-31T11:01:22;43.80;17.30
67559;DHT22;54388;53.536;49.300;2023-05-31T11:03:49;43.80;17.30
67559;DHT22;54388;53.536;49.300;2023-05-31T11:06:29;43.90;17.10
67559;DHT22;54388;53.536;49.300;2023-05-31T11:09:13;43.80;16.90
67559;DHT22;54388;53.536;49.300;2023-05-31T11:11:42;43.80;17.10
67559;DHT22;54388;53.536;49.300;2023-05-31T11:14:25;43.70;17.10
67559;DHT22;54388;53.536;49.300;2023-05-31T11:19:36;43.70;17.10
67559;DHT22;54388;53.536;49.300;2023-05-31T11:22:09;43.80;16.80
67559;DHT22;54388;53.536;49.300;2023-05-31T11:24:47;43.80;16.90
67559;DHT22;54388;53.536;49.300;2023-05-31T11:27:17;43.80;16.90
67559;DHT22;54388;53.536;49.300;2023-05-31T11:32:14;43.90;17.00
67559;DHT22;54388;53.536;49.300;2023-05-31T11:34:50;44.00;16.80
67559;DHT22;54388;53.536;49.300;2023-05-31T11:37:20;44.20;16.60
67559;DHT22;54388;53.536;49.300;2023-05-31T11:39:50;44.40;16.50
67559;DHT22;54388;53.536;49.300;2023-05-31T11:42:21;44.50;16.40
67559;DHT22;54388;53.536;49.300;2023-05-31T11:44:52;44.60;16.40
67559;DHT22;54388;53.536;49.300;2023-05-31T11:47:30;44.80;16.20
67559;DHT22;54388;53.536;49.300;2023-05-31T11:50:00;44.80;17.00
67559;DHT22;54388;53.536;49.300;2023-05-31T11:52:28;45.00;16.30
67559;DHT22;54388;53.536;49.300;2023-05-31T11:55:04;45.00;16.30
67559;DHT22;54388;53.536;49.300;2023-05-31T11:57:42;45.10;16.00
67559;DHT22;54388;53.536;49.300;2023-05-31T12:00:14;45.40;16.00
67559;DHT22;54388;53.536;49.300;2023-05-31T12:02:43;45.50;15.80
67559;DHT22;54388;53.536;49.300;2023-05-31T12:05:17;45.60;15.90
67559;DHT22;54388;53.536;49.300;2023-05-31T12:07:52;45.80;15.90
67559;DHT22;54388;53.536;49.300;2023-05-31T12:10:19;45.90;16.50
67559;DHT22;54388;53.536;49.300;2023-05-31T12:12:48;46.20;15.50
67559;DHT22;54388;53.536;49.300;2023-05-31T12:15:16;46.40;15.30
67559;DHT22;54388;53.536;49.300;2023-05-31T12:17:46;46.60;15.20
67559;DHT22;54388;53.536;49.300;2023-05-31T12:20:16;46.80;15.10
67559;DHT22;54388;53.536;49.300;2023-05-31T12:22:43;47.00;14.90
67559;DHT22;54388;53.536;49.300;2023-05-31T12:25:09;47.10;14.90
67559;DHT22;54388;53.536;49.300;2023-05-31T12:27:36;47.30;14.50
67559;DHT22;54388;53.536;49.300;2023-05-31T12:30:03;47.40;14.30
67559;DHT22;54388;53.536;49.300;2023-05-31T12:32:30;47.50;14.20
67559;DHT22;54388;53.536;49.300;2023-05-31T12:35:08;47.60;14.00
67559;DHT22;54388;53.536;49.300;2023-05-31T12:37:39;47.70;14.00
67559;DHT22;54388;53.536;49.300;2023-05-31T12:40:13;47.70;14.00
67559;DHT22;54388;53.536;49.300;2023-05-31T12:42:40;47.90;14.10
67559;DHT22;54388;53.536;49.300;2023-05-31T12:45:08;48.00;13.90
67559;DHT22;54388;53.536;49.300;2023-05-31T12:47:42;48.00;13.90
67559;DHT22;54388;53.536;49.300;2023-05-31T12:50:13;48.00;14.00
67559;DHT22;54388;53.536;49.300;2023-05-31T12:52:40;47.90;14.00
67559;DHT22;54388;53.536;49.300;2023-05-31T12:55:07;47.80;14.00
67559;DHT22;54388;53.536;49.300;2023-05-31T12:57:34;47.70;14.10
67559;DHT22;54388;53.536;49.300;2023-05-31T13:00:06;47.60;14.90
67559;DHT22;54388;53.536;49.300;2023-05-31T13:02:39;47.50;14.10
67559;DHT22;54388;53.536;49.300;2023-05-31T13:05:08;47.30;14.20
67559;DHT22;54388;53.536;49.300;2023-05-31T13:07:35;47.10;14.40
67559;DHT22;54388;53.536;49.300;2023-05-31T13:10:05;46.80;14.40
67559;DHT22;54388;53.536;49.300;2023-05-31T13:12:35;46.70;14.60
67559;DHT22;54388;53.536;49.300;2023-05-31T13:15:03;46.40;14.70
67559;DHT22;54388;53.536;49.300;2023-05-31T13:17:36;46.10;14.90
67559;DHT22;54388;53.536;49.300;2023-05-31T13:20:03;45.90;15.10
67559;DHT22;54388;53.536;49.300;2023-05-31T13:22:35;45.60;15.20
67559;DHT22;54388;53.536;49.300;2023-05-31T13:25:05;45.40;15.50
67559;DHT22;54388;53.536;49.300;2023-05-31T13:27:32;45.10;15.60
67559;DHT22;54388;53.536;49.300;2023-05-31T13:30:03;44.90;15.80
67559;DHT22;54388;53.536;49.300;2023-05-31T13:32:31;44.60;16.10
67559;DHT22;54388;53.536;49.300;2023-05-31T13:34:58;44.30;16.30
67559;DHT22;54388;53.536;49.300;2023-05-31T13:37:24;44.00;16.50
67559;DHT22;54388;53.536;49.300;2023-05-31T13:39:51;43.80;16.70
67559;DHT22;54388;53.536;49.300;2023-05-31T13:42:20;43.50;16.80
67559;DHT22;54388;53.536;49.300;2023-05-31T13:44:47;43.40;17.00
67559;DHT22;54388;53.536;49.300;2023-05-31T13:47:16;43.10;17.20
67559;DHT22;54388;53.536;49.300;2023-05-31T13:49:42;42.90;17.40
67559;DHT22;54388;53.536;49.300;2023-05-31T13:52:09;42.70;17.60
67559;DHT22;54388;53.536;49.300;2023-05-31T13:54:44;42.50;17.90
67559;DHT22;54388;53.536;49.300;2023-05-31T13:57:10;42.40;18.10
67559;DHT22;54388;53.536;49.300;2023-05-31T13:59:37;42.20;18.20
67559;DHT22;54388;53.536;49.300;2023-05-31T14:02:09;42.10;18.70
67559;DHT22;54388;53.536;49.300;2023-05-31T14:04:38;41.90;19.00
67559;DHT22;54388;53.536;49.300;2023-05-31T14:07:04;41.80;19.90
67559;DHT22;54388;53.536;49.300;2023-05-31T14:09:37;41.60;20.50
67559;DHT22;54388;53.536;49.300;2023-05-31T14:12:05;41.40;20.80
67559;DHT22;54388;53.536;49.300;2023-05-31T14:14:34;41.30;21.10
67559;DHT22;54388;53.536;49.300;2023-05-31T14:17:00;41.10;21.20
67559;DHT22;54388;53.536;49.300;2023-05-31T14:19:29;41.00;21.30
67559;DHT22;54388;53.536;49.300;2023-05-31T14:21:58;40.70;22.00
67559;DHT22;54388;53.536;49.300;2023-05-31T14:24:28;40.60;22.10
67559;DHT22;54388;53.536;49.300;2023-05-31T14:27:01;40.50;22.20
67559;DHT22;54388;53.536;49.300;2023-05-31T14:29:30;40.30;22.40
67559;DHT22;54388;53.536;49.300;2023-05-31T14:32:02;40.10;22.70
67559;DHT22;54388;53.536;49.300;2023-05-31T14:34:31;40.00;23.10
67559;DHT22;54388;53.536;49.300;2023-05-31T14:36:58;40.00;23.10
67559;DHT22;54388;53.536;49.300;2023-05-31T14:39:24;40.20;23.40
67559;DHT22;54388;53.536;49.300;2023-05-31T14:41:52;40.40;23.00
67559;DHT22;54388;53.536;49.300;2023-05-31T14:44:24;40.60;23.00
67559;DHT22;54388;53.536;49.300;2023-05-31T14:46:53;40.80;22.80
67559;DHT22;54388;53.536;49.300;2023-05-31T14:49:23;41.20;22.90
67559;DHT22;54388;53.536;49.300;2023-05-31T14:51:50;41.30;23.30
67559;DHT22;54388;53.536;49.300;2023-05-31T14:54:22;41.70;22.30
67559;DHT22;54388;53.536;49.300;2023-05-31T14:56:52;41.90;21.60
67559;DHT22;54388;53.536;49.300;2023-05-31T14:59:21;42.10;21.20
67559;DHT22;54388;53.536;49.300;2023-05-31T15:01:57;42.30;21.00
67559;DHT22;54388;53.536;49.300;2023-05-31T15:04:26;42.40;20.70
67559;DHT22;54388;53.536;49.300;2023-05-31T15:06:55;42.50;20.50
67559;DHT22;54388;53.536;49.300;2023-05-31T15:09:25;42.70;20.40
67559;DHT22;54388;53.536;49.300;2023-05-31T15:11:52;42.80;20.20
67559;DHT22;54388;53.536;49.300;2023-05-31T15:14:18;42.90;20.10
67559;DHT22;54388;53.536;49.300;2023-05-31T15:16:47;43.10;20.10
67559;DHT22;54388;53.536;49.300;2023-05-31T15:19:14;43.20;20.10
67559;DHT22;54388;53.536;49.300;2023-05-31T15:21:41;43.20;20.20
67559;DHT22;54388;53.536;49.300;2023-05-31T15:24:09;43.10;20.20
67559;DHT22;54388;53.536;49.300;2023-05-31T15:26:38;43.00;20.10
67559;DHT22;54388;53.536;49.300;2023-05-31T15:29:07;42.90;20.20
67559;DHT22;54388;53.536;49.300;2023-05-31T15:31:40;42.80;20.50
67559;DHT22;54388;53.536;49.300;2023-05-31T15:34:07;42.60;20.50
67559;DHT22;54388;53.536;49.300;2023-05-31T15:36:33;42.50;20.80
67559;DHT22;54388;53.536;49.300;2023-05-31T15:39:06;42.30;21.00
67559;DHT22;54388;53.536;49.300;2023-05-31T15:41:33;42.10;21.20
67559;DHT22;54388;53.536;49.300;2023-05-31T15:44:00;41.90;21.40
67559;DHT22;54388;53.536;49.300;2023-05-31T15:46:28;41.50;21.60
67559;DHT22;54388;53.536;49.300;2023-05-31T15:48:55;41.20;21.70
67559;DHT22;54388;53.536;49.300;2023-05-31T15:51:27;40.90;21.90